CheckWX is a tool to help pilots better visualize weather data.  It is not intended as a substitute for an official pre-flight weather briefing.

12:44:07 UTC

ESNN METAR
Sundsvall-Härnösand Airport
Sundsvall/ Härnösand, Sweden
Current

24 mins ago

ESNN 161220Z 02005KT 320V060 5000 -DZ BKN009 BKN014 OVC017 05/05 Q1014
Observed
Oct-16 @ 12:20 UTC
Wind
  • 020° at 5 KTS
Visibility
5,000 meters
Flight Rules
IFR
Conditions
Light Drizzle
Cloud Levels
  • Broken at 900' AGL
  • Broken at 1,400' AGL
  • Overcast at 1,700' AGL
Temperature
C / 41°F
Dewpoint
C / 41°F
Humidity
100%
Altimeter
29.94" Hg
Pressure
1013.92 hPa
Previous

54 mins ago

ESNN 161150Z 02005KT 360V060 7000 -DZ VV014 05/05 Q1014
Observed
Oct-16 @ 11:50 UTC
Wind
  • 020° at 5 KTS
Visibility
7,000 meters
Flight Rules
LIFR
Conditions
Light Drizzle
Cloud Levels
  • Vertical visibility at 1,400' AGL
Temperature
C / 41°F
Dewpoint
C / 41°F
Humidity
100%
Altimeter
29.94" Hg
Pressure
1013.92 hPa
Previous

1 hour ago

ESNN 161120Z 02006KT 5000 DZ BR VV016 05/05 Q1014
Observed
Oct-16 @ 11:20 UTC
Wind
  • 020° at 6 KTS
Visibility
5,000 meters
Flight Rules
LIFR
Conditions
Drizzle, Mist
Cloud Levels
  • Vertical visibility at 1,600' AGL
Temperature
C / 41°F
Dewpoint
C / 41°F
Humidity
100%
Altimeter
29.94" Hg
Pressure
1013.92 hPa